Time;durP1;ratioP1;P1;durP2;ratioP2;P2;SDS_P1;SDS_P2;PMS_P1;PMS_P2;Temp;Humidity;BMP_temperature;BMP_pressure;BME280_temperature;BME280_humidity;BME280_pressure;Samples;Min_cycle;Max_cycle;Signal;HPM_P1;HPM_P2
2023/07/17 00:01:22;;;;;;;1.50;0.90;;;20.00;93.90;;;;;;4923604;29;20475;-83
2023/07/17 00:03:51;;;;;;;1.47;0.90;;;20.00;95.00;;;;;;4909799;29;20497;-83
2023/07/17 00:06:19;;;;;;;1.43;0.90;;;20.00;94.70;;;;;;4923974;29;20468;-83
2023/07/17 00:08:46;;;;;;;1.43;0.90;;;20.00;95.50;;;;;;4917842;29;20487;-83
2023/07/17 00:11:12;;;;;;;1.43;0.90;;;20.00;95.00;;;;;;4924673;29;20470;-83
2023/07/17 00:13:39;;;;;;;1.47;0.90;;;20.10;95.20;;;;;;4923596;29;20512;-83
2023/07/17 00:16:06;;;;;;;1.50;0.93;;;20.10;95.10;;;;;;4924706;29;20489;-83
2023/07/17 00:18:34;;;;;;;1.40;0.90;;;20.10;95.80;;;;;;4925734;29;20491;-83
2023/07/17 00:21:01;;;;;;;1.47;0.90;;;20.10;95.20;;;;;;4920037;29;20473;-84
2023/07/17 00:23:29;;;;;;;1.47;0.90;;;20.00;95.00;;;;;;4925356;29;20495;-84
2023/07/17 00:25:56;;;;;;;1.43;0.90;;;20.00;95.80;;;;;;4921380;29;20466;-83
2023/07/17 00:28:23;;;;;;;1.47;0.90;;;20.00;95.50;;;;;;4929013;29;20464;-83
2023/07/17 00:30:50;;;;;;;1.47;0.90;;;20.00;95.30;;;;;;4925195;29;20473;-84
2023/07/17 00:33:16;;;;;;;1.50;0.90;;;20.00;95.40;;;;;;4927275;29;20499;-83
2023/07/17 00:35:43;;;;;;;1.50;0.90;;;20.00;95.30;;;;;;4930229;29;20487;-83
2023/07/17 00:38:10;;;;;;;1.50;0.90;;;20.00;95.50;;;;;;4922658;29;20973;-83
2023/07/17 00:40:40;;;;;;;1.60;1.27;;;19.90;95.50;;;;;;4924191;29;20492;-83
2023/07/17 00:43:10;;;;;;;1.50;0.90;;;19.90;95.10;;;;;;4914311;29;20493;-83
2023/07/17 00:45:40;;;;;;;1.50;1.00;;;19.90;95.50;;;;;;4924331;29;20943;-82
2023/07/17 00:48:08;;;;;;;1.50;0.90;;;19.90;96.30;;;;;;4916631;29;20545;-82
2023/07/17 00:50:35;;;;;;;1.50;0.90;;;19.90;95.80;;;;;;4922488;29;20466;-83
2023/07/17 00:53:03;;;;;;;1.40;0.90;;;19.90;95.90;;;;;;4922681;29;20485;-82
2023/07/17 00:55:31;;;;;;;1.47;0.90;;;19.90;95.90;;;;;;4925462;29;20490;-83
2023/07/17 00:58:00;;;;;;;1.40;0.90;;;19.90;95.90;;;;;;4920684;29;20472;-83
2023/07/17 01:00:27;;;;;;;1.47;0.90;;;19.90;96.10;;;;;;4922356;29;20466;-82
2023/07/17 01:02:54;;;;;;;1.50;0.90;;;19.80;96.50;;;;;;4919088;29;20492;-82
2023/07/17 01:05:21;;;;;;;1.40;0.90;;;19.80;96.20;;;;;;4925421;29;20845;-83
2023/07/17 01:07:48;;;;;;;1.40;0.90;;;19.80;96.40;;;;;;4917263;29;20462;-84
2023/07/17 01:10:14;;;;;;;1.40;0.90;;;19.70;97.00;;;;;;4926018;29;20470;-83
2023/07/17 01:12:41;;;;;;;1.47;0.90;;;19.70;96.70;;;;;;4924393;29;20572;-83
2023/07/17 01:15:10;;;;;;;1.43;0.90;;;19.70;97.50;;;;;;4924909;29;20491;-83
2023/07/17 01:17:37;;;;;;;1.47;0.90;;;19.70;97.30;;;;;;4926959;29;20456;-83
2023/07/17 01:20:06;;;;;;;1.47;1.00;;;19.60;97.40;;;;;;4930367;29;20464;-83
2023/07/17 01:22:35;;;;;;;1.40;0.90;;;19.60;97.60;;;;;;4922503;29;20508;-83
2023/07/17 01:25:04;;;;;;;1.50;0.90;;;19.60;97.00;;;;;;4927675;29;21008;-83
2023/07/17 01:27:31;;;;;;;1.47;0.90;;;19.60;97.50;;;;;;4924666;29;20537;-83
2023/07/17 01:29:57;;;;;;;1.50;0.90;;;19.50;97.40;;;;;;4925532;29;20880;-83
2023/07/17 01:32:24;;;;;;;1.43;0.90;;;19.50;97.30;;;;;;4928049;29;20501;-83
2023/07/17 01:34:51;;;;;;;1.43;0.90;;;19.50;97.10;;;;;;4909715;29;20845;-83
2023/07/17 01:37:17;;;;;;;1.50;0.90;;;19.50;96.90;;;;;;4899950;29;20507;-82
2023/07/17 01:39:44;;;;;;;1.43;0.90;;;19.50;97.20;;;;;;4922489;29;20464;-83
2023/07/17 01:42:12;;;;;;;1.50;0.90;;;19.50;97.40;;;;;;4929360;29;20491;-82
2023/07/17 01:44:39;;;;;;;1.50;0.97;;;19.50;97.50;;;;;;4928111;29;20468;-83
2023/07/17 01:47:06;;;;;;;1.50;1.00;;;19.50;96.90;;;;;;4927688;29;20845;-83
2023/07/17 01:49:33;;;;;;;1.47;0.90;;;19.40;97.10;;;;;;4917146;29;20477;-82
2023/07/17 01:52:00;;;;;;;1.40;0.90;;;19.40;97.00;;;;;;4927349;29;20549;-83
2023/07/17 01:54:27;;;;;;;1.50;0.90;;;19.40;97.00;;;;;;4926121;29;20785;-83
2023/07/17 01:57:03;;;;;;;1.47;0.90;;;19.30;97.40;;;;;;4923638;29;20496;-83
2023/07/17 01:59:31;;;;;;;1.47;0.90;;;19.30;97.10;;;;;;4926255;29;20463;-82
2023/07/17 02:01:57;;;;;;;1.40;0.87;;;19.30;97.40;;;;;;4923717;29;20579;-83
2023/07/17 02:04:24;;;;;;;1.47;0.90;;;19.30;97.20;;;;;;4924695;29;20795;-83
2023/07/17 02:06:51;;;;;;;1.50;0.90;;;19.30;96.90;;;;;;4928725;29;20750;-83
2023/07/17 02:09:18;;;;;;;1.47;0.90;;;19.30;96.60;;;;;;4919081;29;20461;-82
2023/07/17 02:11:44;;;;;;;1.47;0.90;;;19.30;96.50;;;;;;4929700;29;21004;-82
2023/07/17 02:14:11;;;;;;;1.50;0.90;;;19.30;97.00;;;;;;4923739;29;20469;-82
2023/07/17 02:16:39;;;;;;;1.47;0.90;;;19.30;96.50;;;;;;4931897;29;20862;-82
2023/07/17 02:19:06;;;;;;;1.50;0.90;;;19.30;96.30;;;;;;4929520;29;20465;-82
2023/07/17 02:21:33;;;;;;;1.50;0.90;;;19.30;96.90;;;;;;4932372;29;20464;-82
2023/07/17 02:24:00;;;;;;;1.50;0.90;;;19.30;96.60;;;;;;4932683;29;20493;-82
2023/07/17 02:26:27;;;;;;;1.47;0.90;;;19.30;96.90;;;;;;4928341;29;20459;-83
2023/07/17 02:28:54;;;;;;;1.47;0.90;;;19.20;97.20;;;;;;4932309;29;20468;-82
2023/07/17 02:31:21;;;;;;;1.43;0.90;;;19.20;97.70;;;;;;4931291;29;20471;-83
2023/07/17 02:34:22;;;;;;;1.40;0.90;;;19.10;97.40;;;;;;4972266;23;20582;-87
2023/07/17 02:36:58;;;;;;;1.47;0.90;;;19.10;97.80;;;;;;4927796;29;20860;-85
2023/07/17 02:39:34;;;;;;;1.47;0.90;;;19.10;97.60;;;;;;4932850;29;20637;-89
2023/07/17 02:42:06;;;;;;;1.50;0.90;;;19.10;97.70;;;;;;4933990;29;20604;-89
2023/07/17 02:44:35;;;;;;;1.40;0.90;;;19.10;97.50;;;;;;4920096;29;20484;-87
2023/07/17 02:47:37;;;;;;;1.43;0.90;;;19.00;98.20;;;;;;4913629;29;20536;-87
2023/07/17 02:52:50;;;;;;;1.43;0.87;;;19.00;97.70;;;;;;4913271;29;20961;-85
2023/07/17 03:01:49;;;;;;;1.40;0.90;;;18.90;97.80;;;;;;4906979;29;20496;-84
2023/07/17 03:04:44;;;;;;;1.47;0.90;;;18.90;98.20;;;;;;4912479;29;20484;-86
2023/07/17 03:07:42;;;;;;;1.40;0.90;;;18.80;98.10;;;;;;4915181;29;20472;-84
2023/07/17 03:13:12;;;;;;;1.40;0.90;;;18.70;98.20;;;;;;4910346;29;21034;-84
2023/07/17 03:16:12;;;;;;;1.50;1.00;;;18.60;98.20;;;;;;4912640;29;20569;-83
2023/07/17 03:22:15;;;;;;;1.50;1.00;;;18.50;98.20;;;;;;4906463;29;20465;-83
2023/07/17 03:25:23;;;;;;;1.43;0.90;;;18.40;98.20;;;;;;4903849;29;20488;-86
2023/07/17 03:28:34;;;;;;;1.43;0.90;;;18.30;98.20;;;;;;4909821;29;20465;-86
2023/07/17 03:34:10;;;;;;;1.47;0.90;;;18.30;98.20;;;;;;4907749;29;20508;-85
2023/07/17 03:37:02;;;;;;;1.50;1.00;;;18.20;98.20;;;;;;4912780;29;20508;-84
2023/07/17 03:39:41;;;;;;;1.50;0.90;;;18.20;98.20;;;;;;4914579;29;20480;-85
2023/07/17 03:42:21;;;;;;;1.50;0.90;;;18.20;98.20;;;;;;4912193;29;20556;-85
2023/07/17 03:45:05;;;;;;;1.50;1.00;;;18.20;98.20;;;;;;4910355;29;20500;-84
2023/07/17 03:47:57;;;;;;;1.50;0.90;;;18.20;98.20;;;;;;4914589;29;20463;-84
2023/07/17 03:50:33;;;;;;;1.50;0.90;;;18.20;98.20;;;;;;4914185;29;20461;-87
2023/07/17 03:56:07;;;;;;;1.50;0.90;;;18.10;98.20;;;;;;4911300;29;20816;-83
2023/07/17 04:01:24;;;;;;;1.50;0.90;;;18.00;98.20;;;;;;4908284;29;20468;-87
2023/07/17 04:08:16;;;;;;;1.43;0.90;;;17.90;98.20;;;;;;4916906;29;20476;-87
2023/07/17 04:13:52;;;;;;;1.47;1.00;;;17.80;98.20;;;;;;4886479;29;20909;-86
2023/07/17 04:19:28;;;;;;;1.50;0.90;;;17.70;98.20;;;;;;4914654;29;20591;-88
2023/07/17 04:22:36;;;;;;;1.50;0.90;;;17.60;98.20;;;;;;4906653;29;20767;-85
2023/07/17 04:25:21;;;;;;;1.47;0.90;;;17.60;98.20;;;;;;4902538;29;20465;-86
2023/07/17 04:28:03;;;;;;;;;;;;;;;;;;;;;
2023/07/17 04:33:35;;;;;;;1.47;1.00;;;17.60;98.20;;;;;;4907383;29;20567;-87
2023/07/17 04:39:29;;;;;;;1.47;0.90;;;17.60;98.20;;;;;;4910609;29;20617;-86
2023/07/17 04:42:29;;;;;;;1.50;1.00;;;17.60;98.20;;;;;;4906627;29;20581;-82
2023/07/17 04:48:43;;;;;;;1.50;0.90;;;17.60;98.20;;;;;;4906184;29;20485;-82
2023/07/17 04:51:41;;;;;;;1.47;0.90;;;17.70;98.20;;;;;;4901658;29;20464;-82
2023/07/17 04:54:08;;;;;;;1.50;1.00;;;17.80;98.20;;;;;;4905786;29;20801;-82
2023/07/17 04:56:54;;;;;;;1.47;0.90;;;17.90;98.20;;;;;;4904531;29;20488;-82
2023/07/17 04:59:56;;;;;;;1.47;0.90;;;17.90;98.20;;;;;;4904548;29;20524;-83
2023/07/17 05:02:24;;;;;;;1.50;0.90;;;18.00;98.20;;;;;;4893339;29;21107;-82
2023/07/17 05:10:57;;;;;;;1.47;0.90;;;18.40;98.20;;;;;;4880499;29;21018;-84
2023/07/17 05:13:25;;;;;;;1.50;0.90;;;18.60;98.20;;;;;;4907324;29;20495;-82
2023/07/17 05:15:53;;;;;;;1.47;0.90;;;18.70;98.20;;;;;;4907705;29;20576;-83
2023/07/17 05:19:09;;;;;;;1.47;0.90;;;18.90;98.20;;;;;;4904548;29;20492;-83
2023/07/17 05:21:39;;;;;;;1.40;0.90;;;19.00;98.20;;;;;;4906231;29;20468;-82
2023/07/17 05:24:28;;;;;;;1.40;0.90;;;19.20;98.20;;;;;;4902638;29;20504;-83
2023/07/17 05:26:58;;;;;;;1.50;0.90;;;19.40;98.20;;;;;;4859670;29;20974;-83
2023/07/17 05:29:33;;;;;;;1.50;0.90;;;19.60;98.20;;;;;;4897193;29;20478;-84
2023/07/17 05:32:26;;;;;;;;;;;;;;;;;;;;;
2023/07/17 05:35:44;;;;;;;1.50;0.90;;;19.90;98.10;;;;;;4903038;29;20555;-81
2023/07/17 05:41:19;;;;;;;1.47;0.90;;;20.10;96.60;;;;;;4857657;29;20544;-83
2023/07/17 05:44:37;;;;;;;1.50;0.90;;;20.20;96.00;;;;;;4866685;29;20518;-84
2023/07/17 05:47:23;;;;;;;1.43;0.90;;;20.40;95.30;;;;;;4861411;29;20483;-82
2023/07/17 05:49:50;;;;;;;1.47;0.90;;;20.50;94.70;;;;;;4873341;29;20535;-81
2023/07/17 05:55:36;;;;;;;1.43;0.90;;;20.50;94.00;;;;;;4893889;29;20476;-83
2023/07/17 06:10:25;;;;;;;1.47;0.90;;;20.80;92.10;;;;;;4920398;29;20489;-83
2023/07/17 06:13:35;;;;;;;1.50;0.90;;;20.90;92.30;;;;;;4920443;29;20599;-83
2023/07/17 06:16:21;;;;;;;1.47;0.90;;;21.00;91.50;;;;;;4897686;29;20472;-82
2023/07/17 06:18:51;;;;;;;1.43;0.90;;;21.10;91.90;;;;;;4909430;29;20987;-83
2023/07/17 06:25:12;;;;;;;1.47;0.90;;;21.40;90.70;;;;;;4859853;29;20488;-83
2023/07/17 06:35:19;;;;;;;1.50;0.90;;;22.00;87.90;;;;;;4801712;29;21005;-84
2023/07/17 06:42:18;;;;;;;1.43;0.90;;;22.20;88.30;;;;;;4848262;29;20545;-84
2023/07/17 06:58:34;;;;;;;1.47;0.90;;;22.90;85.10;;;;;;4728292;30;20499;-84
2023/07/17 07:01:47;;;;;;;1.50;0.90;;;22.90;85.10;;;;;;4773041;30;20474;-85
2023/07/17 07:15:34;;;;;;;1.47;0.90;;;23.40;83.30;;;;;;5005431;23;20537;-83
2023/07/17 07:52:29;;;;;;;1.47;0.90;;;24.90;77.10;;;;;;4763087;29;21053;-84
2023/07/17 08:01:27;;;;;;;1.50;1.00;;;25.30;77.10;;;;;;4883240;29;20980;-83
2023/07/17 08:07:23;;;;;;;1.50;0.90;;;25.70;74.70;;;;;;4905166;29;20979;-82
2023/07/17 08:10:08;;;;;;;1.47;0.80;;;25.80;74.50;;;;;;4899611;29;20465;-82
2023/07/17 08:12:52;;;;;;;1.50;0.90;;;25.80;74.50;;;;;;4901068;29;20849;-83
2023/07/17 08:15:27;;;;;;;1.50;0.80;;;25.80;74.70;;;;;;4902857;29;20473;-82
2023/07/17 08:18:04;;;;;;;2.13;1.93;;;25.80;74.90;;;;;;4904538;29;20495;-83
2023/07/17 08:20:35;;;;;;;1.43;0.83;;;25.90;75.10;;;;;;4900638;29;20476;-87
2023/07/17 08:23:32;;;;;;;2.17;1.20;;;25.80;74.60;;;;;;4899110;29;20870;-84
2023/07/17 08:26:08;;;;;;;1.47;0.80;;;25.80;74.80;;;;;;4908103;29;20507;-82
2023/07/17 08:28:39;;;;;;;1.50;0.90;;;26.00;75.00;;;;;;4909074;29;20887;-84
2023/07/17 08:31:20;;;;;;;1.50;1.00;;;26.20;74.40;;;;;;4906104;29;20472;-82
2023/07/17 08:33:47;;;;;;;1.50;0.80;;;26.30;72.70;;;;;;4907019;29;20484;-82
2023/07/17 08:36:29;;;;;;;;;;;;;;;;;;;;;
2023/07/17 08:39:27;;;;;;;1.50;0.90;;;26.40;71.70;;;;;;4906008;29;20596;-83
2023/07/17 08:42:07;;;;;;;1.43;0.90;;;26.50;72.00;;;;;;4910325;29;20472;-83
2023/07/17 08:47:44;;;;;;;1.47;0.80;;;26.70;70.90;;;;;;4900502;29;20456;-83
2023/07/17 08:50:15;;;;;;;1.50;0.90;;;26.80;71.60;;;;;;4908360;29;20498;-84
2023/07/17 08:55:35;;;;;;;1.50;0.90;;;26.60;70.60;;;;;;4906476;29;20539;-84
2023/07/17 08:58:22;;;;;;;1.40;0.80;;;26.70;70.60;;;;;;4906052;29;20499;-84
2023/07/17 09:00:51;;;;;;;1.50;0.80;;;26.70;70.20;;;;;;4906132;29;20476;-84
2023/07/17 09:09:37;;;;;;;1.50;0.90;;;27.10;70.60;;;;;;4859171;29;20545;-84
2023/07/17 09:12:15;;;;;;;1.47;0.80;;;27.20;70.30;;;;;;4908864;29;20993;-82
2023/07/17 09:14:54;;;;;;;1.43;0.80;;;27.30;69.60;;;;;;4905230;29;20489;-83
2023/07/17 09:17:31;;;;;;;1.40;0.80;;;27.30;70.50;;;;;;4903752;29;20567;-82
2023/07/17 09:20:30;;;;;;;1.43;0.80;;;27.20;70.10;;;;;;4903613;29;20469;-84
2023/07/17 09:26:10;;;;;;;1.47;0.80;;;27.10;69.90;;;;;;4878101;29;20516;-83
2023/07/17 09:29:24;;;;;;;1.47;0.80;;;27.30;70.50;;;;;;4870130;29;20573;-83
2023/07/17 09:31:57;;;;;;;1.40;0.80;;;27.40;70.00;;;;;;4905431;29;20556;-84
2023/07/17 09:34:24;;;;;;;1.43;0.80;;;27.40;70.40;;;;;;4905660;29;20984;-85
2023/07/17 09:37:04;;;;;;;1.40;0.90;;;27.60;69.90;;;;;;4907884;29;20469;-83
2023/07/17 09:42:58;;;;;;;1.60;1.33;;;28.00;69.00;;;;;;4900147;29;20467;-83
2023/07/17 09:48:27;;;;;;;1.43;0.80;;;28.00;67.00;;;;;;4908242;29;20480;-85
2023/07/17 09:51:00;;;;;;;1.47;0.80;;;27.80;67.80;;;;;;4906313;29;20923;-83
2023/07/17 09:53:50;;;;;;;1.40;0.80;;;27.50;67.90;;;;;;4902977;29;20502;-85
2023/07/17 09:57:02;;;;;;;1.40;0.80;;;27.30;68.60;;;;;;4902654;29;20473;-84
2023/07/17 09:59:42;;;;;;;1.43;0.80;;;27.30;69.30;;;;;;4912118;29;20487;-85
2023/07/17 10:02:23;;;;;;;1.47;0.80;;;27.40;68.40;;;;;;4910019;29;20468;-84
2023/07/17 10:05:30;;;;;;;1.43;0.80;;;27.30;68.40;;;;;;4915738;29;20499;-80
2023/07/17 10:08:00;;;;;;;1.47;0.80;;;27.20;69.20;;;;;;4903921;29;20463;-82
2023/07/17 10:11:26;;;;;;;1.40;0.80;;;27.10;69.50;;;;;;4913754;29;20452;-83
2023/07/17 10:17:41;;;;;;;1.40;0.80;;;26.80;70.10;;;;;;4819023;29;20525;-85
2023/07/17 10:20:29;;;;;;;1.40;0.80;;;26.90;70.20;;;;;;4879677;29;20824;-84
2023/07/17 10:29:48;;;;;;;1.40;0.80;;;27.70;68.20;;;;;;4864265;29;21188;-85
2023/07/17 10:35:25;;;;;;;1.47;0.80;;;28.00;68.40;;;;;;4874731;29;20455;-82
2023/07/17 10:38:27;;;;;;;1.50;1.17;;;28.20;67.50;;;;;;4905430;29;20487;-85
2023/07/17 10:41:27;;;;;;;1.43;0.80;;;28.20;66.80;;;;;;4910302;29;20506;-87
2023/07/17 10:44:15;;;;;;;1.40;0.80;;;28.10;67.30;;;;;;4906387;29;20484;-85
2023/07/17 10:47:03;;;;;;;1.43;0.80;;;27.90;68.70;;;;;;4907033;29;20468;-84
2023/07/17 10:53:13;;;;;;;1.50;1.10;;;27.60;68.10;;;;;;4898771;29;21086;-84
2023/07/17 10:55:47;;;;;;;1.50;0.90;;;27.60;68.40;;;;;;4908630;29;20535;-85
2023/07/17 10:58:38;;;;;;;1.47;0.80;;;27.60;68.30;;;;;;4907510;29;20483;-83
2023/07/17 11:01:09;;;;;;;1.40;0.80;;;27.90;67.40;;;;;;4907947;29;20567;-83
2023/07/17 11:03:38;;;;;;;1.40;0.80;;;27.90;67.50;;;;;;4900861;29;21036;-82
2023/07/17 11:06:31;;;;;;;1.60;1.17;;;27.80;66.40;;;;;;4908739;29;20535;-82
2023/07/17 11:09:17;;;;;;;1.43;0.80;;;27.80;66.70;;;;;;4907138;29;20521;-85
2023/07/17 11:12:04;;;;;;;1.43;0.80;;;27.80;66.60;;;;;;4907623;29;20504;-83
2023/07/17 11:14:31;;;;;;;1.43;0.90;;;27.70;66.60;;;;;;4904547;29;20607;-84
2023/07/17 11:17:14;;;;;;;1.40;0.80;;;27.80;66.60;;;;;;4908355;29;20540;-84
2023/07/17 11:20:03;;;;;;;1.40;0.90;;;28.00;66.10;;;;;;4908405;29;20499;-84
2023/07/17 11:22:34;;;;;;;1.60;1.20;;;28.20;66.40;;;;;;4911683;29;20468;-83
2023/07/17 11:25:03;;;;;;;1.40;0.80;;;28.10;66.30;;;;;;4903786;29;20472;-84
2023/07/17 11:27:38;;;;;;;1.47;0.90;;;28.00;67.00;;;;;;4906847;29;20910;-84
2023/07/17 11:30:22;;;;;;;1.87;1.40;;;28.00;67.20;;;;;;4906460;29;21077;-85
2023/07/17 11:33:07;;;;;;;1.47;0.80;;;27.70;67.20;;;;;;4905765;29;20473;-87
2023/07/17 11:35:52;;;;;;;1.43;0.80;;;27.50;67.90;;;;;;4903553;29;21260;-85
2023/07/17 11:38:26;;;;;;;2.03;1.67;;;27.20;67.80;;;;;;4909287;29;20518;-82
2023/07/17 11:41:02;;;;;;;1.43;0.80;;;27.10;68.80;;;;;;4907042;29;20562;-84
2023/07/17 11:43:35;;;;;;;1.40;0.80;;;27.10;69.50;;;;;;4897837;29;21018;-85
2023/07/17 11:46:09;;;;;;;1.40;0.80;;;27.10;69.50;;;;;;4900835;29;20787;-84
2023/07/17 11:48:59;;;;;;;1.40;0.80;;;27.20;69.50;;;;;;4896563;29;20472;-84
2023/07/17 11:51:40;;;;;;;1.40;0.80;;;27.30;68.20;;;;;;4903271;29;20566;-84
2023/07/17 11:54:18;;;;;;;1.43;0.80;;;27.50;68.00;;;;;;4909045;29;20532;-83
2023/07/17 11:56:46;;;;;;;1.47;0.80;;;27.50;67.80;;;;;;4905006;29;20476;-86
2023/07/17 11:59:24;;;;;;;1.43;0.80;;;27.60;67.60;;;;;;4905058;29;20528;-82
2023/07/17 12:01:51;;;;;;;1.50;0.80;;;27.70;67.40;;;;;;4903720;29;20859;-83
2023/07/17 12:04:22;;;;;;;1.40;0.80;;;27.70;66.60;;;;;;4906093;29;20497;-84
2023/07/17 12:06:53;;;;;;;1.50;0.80;;;27.60;67.40;;;;;;4901399;29;20563;-85
2023/07/17 12:09:40;;;;;;;1.40;0.80;;;27.70;67.20;;;;;;4900449;29;20562;-83
2023/07/17 12:12:08;;;;;;;1.43;0.80;;;27.70;67.50;;;;;;4901119;29;20506;-83
2023/07/17 12:14:40;;;;;;;1.40;0.80;;;27.80;66.90;;;;;;4899381;29;20551;-83
2023/07/17 12:17:08;;;;;;;1.50;0.90;;;27.80;66.90;;;;;;4899483;29;20472;-82
2023/07/17 12:19:42;;;;;;;1.47;0.80;;;27.80;67.30;;;;;;4906776;29;20491;-85
2023/07/17 12:22:09;;;;;;;3.60;2.00;;;27.90;66.50;;;;;;4904310;29;20579;-84
2023/07/17 12:24:56;;;;;;;1.40;0.80;;;28.20;66.70;;;;;;4902977;29;20488;-85
2023/07/17 12:27:29;;;;;;;1.40;0.80;;;28.30;66.10;;;;;;4901012;29;20472;-83
2023/07/17 12:29:56;;;;;;;1.43;0.80;;;28.40;65.70;;;;;;4899861;29;20477;-83
2023/07/17 12:32:23;;;;;;;1.40;0.80;;;28.40;65.90;;;;;;4908398;29;20829;-85
2023/07/17 12:34:52;;;;;;;1.40;0.90;;;28.30;65.70;;;;;;4902060;29;21055;-84
2023/07/17 12:37:21;;;;;;;1.50;0.80;;;28.20;65.90;;;;;;4905649;29;20781;-85
2023/07/17 12:39:51;;;;;;;1.47;0.80;;;28.10;65.00;;;;;;4906826;29;20496;-82
2023/07/17 12:42:19;;;;;;;1.43;0.80;;;28.00;65.50;;;;;;4902979;29;20503;-85
2023/07/17 12:44:48;;;;;;;1.40;0.80;;;28.00;65.80;;;;;;4902299;29;20485;-83
2023/07/17 12:47:15;;;;;;;1.40;0.80;;;28.20;66.20;;;;;;4906368;29;20523;-82
2023/07/17 12:49:56;;;;;;;1.47;0.83;;;28.70;65.60;;;;;;4907067;29;20477;-83
2023/07/17 12:52:24;;;;;;;1.47;0.80;;;29.20;65.20;;;;;;4905783;29;20527;-84
2023/07/17 12:54:51;;;;;;;1.43;0.80;;;29.60;64.70;;;;;;4903720;29;20548;-84
2023/07/17 12:57:19;;;;;;;1.47;0.80;;;29.90;62.60;;;;;;4905845;29;20471;-84
2023/07/17 12:59:48;;;;;;;1.47;0.80;;;30.20;61.60;;;;;;4906454;29;20998;-84
2023/07/17 13:02:24;;;;;;;1.50;0.90;;;30.40;62.40;;;;;;4900974;29;20934;-84
2023/07/17 13:04:53;;;;;;;1.50;1.00;;;30.50;60.50;;;;;;4903802;29;20491;-82
2023/07/17 13:07:25;;;;;;;1.50;0.80;;;30.50;60.30;;;;;;4906118;29;20499;-86
2023/07/17 13:09:55;;;;;;;1.43;0.80;;;30.60;60.20;;;;;;4905728;29;20464;-85
2023/07/17 13:12:36;;;;;;;1.67;1.33;;;30.50;60.60;;;;;;4905066;29;20468;-86
2023/07/17 13:15:03;;;;;;;1.43;0.80;;;30.40;61.70;;;;;;4904224;29;20569;-83
2023/07/17 13:17:30;;;;;;;1.40;0.80;;;30.50;61.60;;;;;;4906245;29;20494;-83
2023/07/17 13:20:02;;;;;;;1.43;0.80;;;30.30;61.00;;;;;;4905264;29;20492;-81
2023/07/17 13:25:37;;;;;;;1.47;0.80;;;29.70;60.70;;;;;;4869666;29;20464;-85
2023/07/17 13:28:13;;;;;;;1.60;1.20;;;29.40;61.00;;;;;;4902702;29;20472;-84
2023/07/17 13:30:40;;;;;;;1.47;0.80;;;29.00;61.30;;;;;;4902261;29;20553;-85
2023/07/17 13:33:07;;;;;;;1.40;0.80;;;29.10;62.80;;;;;;4905443;29;21050;-84
2023/07/17 13:35:38;;;;;;;1.40;0.80;;;29.30;62.20;;;;;;4903631;29;20472;-87
2023/07/17 13:38:06;;;;;;;1.43;0.80;;;29.60;61.90;;;;;;4904069;29;20551;-82
2023/07/17 13:40:39;;;;;;;1.40;0.80;;;29.70;61.30;;;;;;4906322;29;20491;-86
2023/07/17 13:43:08;;;;;;;1.47;0.80;;;29.50;61.80;;;;;;4905849;29;20547;-85
2023/07/17 13:45:45;;;;;;;1.50;0.80;;;29.10;61.10;;;;;;4907193;29;20468;-88
2023/07/17 13:48:21;;;;;;;1.50;1.00;;;28.80;62.30;;;;;;4906991;29;20459;-84
2023/07/17 13:51:24;;;;;;;1.43;0.80;;;28.60;62.60;;;;;;4904805;29;20464;-83
2023/07/17 13:53:56;;;;;;;1.50;0.90;;;28.40;64.30;;;;;;4901853;29;20491;-85
2023/07/17 13:56:36;;;;;;;1.40;0.80;;;28.20;64.30;;;;;;4902229;29;20492;-81
2023/07/17 13:59:07;;;;;;;1.43;0.90;;;28.00;64.50;;;;;;4904586;29;20491;-84
2023/07/17 14:01:36;;;;;;;1.43;0.80;;;27.90;64.60;;;;;;4902177;29;20856;-86
2023/07/17 14:04:14;;;;;;;1.47;0.80;;;27.80;65.40;;;;;;4903754;29;20956;-83
2023/07/17 14:06:41;;;;;;;1.40;0.80;;;27.70;64.90;;;;;;4903086;29;20464;-85
2023/07/17 14:12:13;;;;;;;1.47;0.80;;;27.80;65.90;;;;;;4904112;29;20464;-88
2023/07/17 14:14:51;;;;;;;1.40;0.80;;;28.00;65.10;;;;;;4908397;29;20604;-85
2023/07/17 14:17:23;;;;;;;1.40;0.80;;;28.40;64.00;;;;;;4907388;29;20634;-82
2023/07/17 14:20:09;;;;;;;1.47;0.80;;;28.80;63.40;;;;;;4910727;29;20519;-87
2023/07/17 14:22:45;;;;;;;1.40;0.80;;;29.00;63.30;;;;;;4908632;29;20459;-85
2023/07/17 14:25:24;;;;;;;1.43;0.80;;;28.90;62.60;;;;;;4908381;29;20467;-81
2023/07/17 14:27:54;;;;;;;1.40;0.80;;;28.60;63.20;;;;;;4902570;29;20476;-83
2023/07/17 14:30:23;;;;;;;2.20;1.00;;;28.40;64.40;;;;;;4906545;29;21007;-81
2023/07/17 14:32:53;;;;;;;1.47;0.80;;;28.30;64.50;;;;;;4906126;29;20475;-82
2023/07/17 14:35:42;;;;;;;1.40;0.80;;;28.30;64.40;;;;;;4907749;29;20482;-84
2023/07/17 14:38:11;;;;;;;1.43;0.80;;;28.30;64.20;;;;;;4907129;29;20478;-83
2023/07/17 14:41:02;;;;;;;1.40;0.90;;;28.20;64.80;;;;;;4908726;29;20543;-85
2023/07/17 14:47:09;;;;;;;1.47;0.87;;;28.10;65.20;;;;;;4908578;29;20962;-84
2023/07/17 14:49:40;;;;;;;1.50;0.83;;;27.90;65.40;;;;;;4904118;29;20470;-86
2023/07/17 14:52:26;;;;;;;1.40;0.80;;;27.70;65.60;;;;;;4908903;29;20491;-85
2023/07/17 14:55:04;;;;;;;1.47;0.90;;;27.40;65.90;;;;;;4906332;29;20498;-85
2023/07/17 14:57:34;;;;;;;1.47;0.80;;;27.00;66.10;;;;;;4905869;29;20831;-84
2023/07/17 15:00:33;;;;;;;1.43;0.80;;;26.70;66.70;;;;;;4906423;29;20487;-86
2023/07/17 15:03:48;;;;;;;;;;;;;;;;;;;;;
2023/07/17 15:06:48;;;;;;;1.50;0.90;;;26.20;67.20;;;;;;4925385;29;20836;-86
2023/07/17 15:09:52;;;;;;;;;;;;;;;;;;;;;
2023/07/17 15:12:20;;;;;;;1.43;0.80;;;25.70;67.30;;;;;;4876083;29;20501;-83
2023/07/17 15:14:51;;;;;;;3.60;1.43;;;25.50;67.80;;;;;;4907570;29;20507;-86
2023/07/17 15:17:18;;;;;;;1.43;0.90;;;25.40;68.30;;;;;;4908551;29;20973;-86
2023/07/17 15:19:46;;;;;;;1.47;0.83;;;25.40;68.60;;;;;;4908841;29;20489;-84
2023/07/17 15:22:17;;;;;;;1.50;0.80;;;25.40;68.40;;;;;;4906921;29;20461;-83
2023/07/17 15:24:44;;;;;;;1.50;1.00;;;25.40;68.90;;;;;;4907620;29;20492;-86
2023/07/17 15:27:18;;;;;;;1.43;0.80;;;25.40;69.40;;;;;;4909348;29;20481;-85
2023/07/17 15:29:47;;;;;;;1.43;0.90;;;25.50;69.20;;;;;;4907866;29;20469;-84
2023/07/17 15:32:25;;;;;;;1.47;0.83;;;25.50;71.50;;;;;;4909822;29;20692;-84
2023/07/17 15:35:02;;;;;;;1.47;0.80;;;25.40;72.60;;;;;;4907341;29;21036;-88
2023/07/17 15:37:29;;;;;;;1.47;0.90;;;25.10;75.20;;;;;;4907826;29;20495;-86
2023/07/17 15:40:04;;;;;;;1.47;0.90;;;25.10;75.20;;;;;;4905657;29;20539;-83
2023/07/17 15:42:39;;;;;;;1.47;0.90;;;25.10;75.80;;;;;;4902841;29;20479;-85
2023/07/17 15:45:10;;;;;;;1.43;0.80;;;24.90;76.50;;;;;;4905652;29;20510;-84
2023/07/17 15:47:47;;;;;;;1.43;0.80;;;24.80;76.50;;;;;;4926206;29;20464;-86
2023/07/17 15:50:15;;;;;;;1.47;0.90;;;24.70;77.10;;;;;;4932919;29;20537;-83
2023/07/17 15:56:43;;;;;;;1.47;0.87;;;24.40;77.70;;;;;;4793854;29;20479;-84
2023/07/17 15:59:32;;;;;;;;;;;;;;;;;;;;;
2023/07/17 16:02:11;;;;;;;1.47;0.90;;;24.20;78.10;;;;;;4937352;29;20842;-85
2023/07/17 16:04:43;;;;;;;1.50;0.90;;;24.30;78.20;;;;;;4924179;29;21089;-83
2023/07/17 16:07:14;;;;;;;1.50;0.90;;;24.30;77.60;;;;;;4926746;29;20467;-82
2023/07/17 16:09:43;;;;;;;1.47;0.80;;;24.50;77.20;;;;;;4925884;29;20461;-85
2023/07/17 16:12:13;;;;;;;1.47;0.90;;;24.80;76.80;;;;;;4927330;29;20877;-86
2023/07/17 16:14:44;;;;;;;1.47;0.80;;;24.80;76.80;;;;;;4920877;29;20502;-84
2023/07/17 16:20:30;;;;;;;1.47;0.83;;;24.60;77.30;;;;;;4926811;29;20514;-87
2023/07/17 16:24:04;;;;;;;1.43;0.90;;;24.30;76.90;;;;;;4927859;29;20936;-84
2023/07/17 16:26:45;;;;;;;1.43;0.87;;;24.10;77.80;;;;;;4832264;29;20898;-86
2023/07/17 16:32:35;;;;;;;1.43;0.90;;;23.70;79.30;;;;;;4925052;29;21003;-83
2023/07/17 16:35:05;;;;;;;1.47;0.90;;;23.30;80.00;;;;;;4930669;29;20464;-83
2023/07/17 16:38:07;;;;;;;;;;;;;;;;;;;;;
2023/07/17 16:40:35;;;;;;;1.50;0.90;;;22.80;80.90;;;;;;4928088;29;20487;-87
2023/07/17 16:43:04;;;;;;;1.43;0.80;;;22.50;79.80;;;;;;4931959;29;20488;-86
2023/07/17 16:45:52;;;;;;;1.43;0.90;;;22.20;79.30;;;;;;4928329;29;20481;-81
2023/07/17 16:48:52;;;;;;;1.50;0.90;;;21.90;80.70;;;;;;4934363;29;20479;-82
2023/07/17 16:51:32;;;;;;;1.50;0.90;;;21.70;81.80;;;;;;4927959;29;20474;-82
2023/07/17 16:54:15;;;;;;;1.47;0.90;;;21.60;84.80;;;;;;4932869;29;20848;-80
2023/07/17 16:56:52;;;;;;;1.50;0.87;;;21.60;87.00;;;;;;4933197;29;21079;-80
2023/07/17 16:59:19;;;;;;;1.47;0.90;;;21.70;88.20;;;;;;4932214;29;20464;-83
2023/07/17 17:02:04;;;;;;;5.07;2.27;;;21.70;88.40;;;;;;4933345;29;20546;-83
2023/07/17 17:04:37;;;;;;;1.43;0.80;;;21.70;86.80;;;;;;4927900;29;21042;-83
2023/07/17 17:07:04;;;;;;;1.40;0.90;;;21.60;87.50;;;;;;4930792;29;20463;-83
2023/07/17 17:09:33;;;;;;;1.50;0.90;;;21.70;87.10;;;;;;4926477;29;20911;-82
2023/07/17 17:12:00;;;;;;;1.47;0.90;;;21.70;86.40;;;;;;4925225;29;20483;-82
2023/07/17 17:14:51;;;;;;;1.47;0.90;;;21.70;86.10;;;;;;4929511;29;20488;-81
2023/07/17 17:17:36;;;;;;;1.50;0.90;;;21.60;86.20;;;;;;4931291;29;20504;-82